createdAt,value
2017-08-18T04:32:45.627Z,9.20
2017-08-18T04:35:14.010Z,10.43
2017-08-18T04:37:42.286Z,8.80
2017-08-18T04:40:10.662Z,9.47
2017-08-18T04:42:38.949Z,8.17
2017-08-18T04:45:07.323Z,8.57
2017-08-18T04:47:35.595Z,7.70
2017-08-18T04:50:03.892Z,7.77
2017-08-18T04:52:32.163Z,7.57
2017-08-18T04:55:00.458Z,7.70
2017-08-18T04:57:29.527Z,8.10
2017-08-18T04:59:57.799Z,7.73
2017-08-18T05:02:26.174Z,8.10
2017-08-18T05:04:54.446Z,7.07
2017-08-18T05:07:22.851Z,6.60
2017-08-18T05:09:51.113Z,7.10
2017-08-18T05:12:20.427Z,7.40
2017-08-18T05:14:48.791Z,7.20
2017-08-18T05:17:17.174Z,6.43
2017-08-18T05:19:45.426Z,7.23
2017-08-18T05:22:13.710Z,7.17
2017-08-18T05:24:42.014Z,5.67
2017-08-18T05:27:10.279Z,6.30
2017-08-18T05:29:38.654Z,5.77
2017-08-18T05:32:07.158Z,5.70
2017-08-18T05:34:35.513Z,5.77
2017-08-18T05:37:03.791Z,6.53
2017-08-18T05:39:32.082Z,6.00
2017-08-18T05:42:00.334Z,5.70
2017-08-18T05:44:28.623Z,5.63
2017-08-18T05:46:56.894Z,6.20
2017-08-18T05:49:25.275Z,6.00
2017-08-18T05:51:53.779Z,4.87
2017-08-18T05:54:22.130Z,5.40
2017-08-18T05:56:50.410Z,4.83
2017-08-18T05:59:18.786Z,5.20
2017-08-18T06:01:47.082Z,5.17
2017-08-18T06:04:15.442Z,4.63
2017-08-18T06:06:43.717Z,4.17
2017-08-18T06:09:12.099Z,4.33
2017-08-18T06:11:40.375Z,4.30
2017-08-18T06:14:08.626Z,4.37
2017-08-18T06:16:36.933Z,5.37
2017-08-18T06:19:05.203Z,4.63
2017-08-18T06:21:33.599Z,4.83
2017-08-18T06:24:01.858Z,5.00
2017-08-18T06:26:30.238Z,4.80
2017-08-18T06:28:58.519Z,5.53
2017-08-18T15:00:19.751Z,2.97
2017-08-18T15:02:48.056Z,2.80
2017-08-18T15:05:16.432Z,2.83
2017-08-18T15:07:44.682Z,3.90
2017-08-18T15:10:12.970Z,3.00
2017-08-18T15:12:42.236Z,3.03
2017-08-18T15:15:10.554Z,3.60
2017-08-18T15:17:38.835Z,3.50
2017-08-18T15:20:07.443Z,3.90
2017-08-18T15:22:35.695Z,3.53
2017-08-18T15:25:03.952Z,3.97
2017-08-18T15:27:32.235Z,3.53
2017-08-18T15:30:00.518Z,3.40
2017-08-18T15:32:28.893Z,3.87
2017-08-18T15:34:57.151Z,3.37
2017-08-18T15:37:25.471Z,3.73
2017-08-18T15:39:53.726Z,3.53
2017-08-18T15:42:22.012Z,4.40
2017-08-18T15:44:50.266Z,3.67
2017-08-18T15:47:18.547Z,3.87
2017-08-18T15:49:46.803Z,3.60
2017-08-18T15:52:15.112Z,4.00
2017-08-18T15:54:43.358Z,4.90
2017-08-18T15:57:11.610Z,4.67
2017-08-18T15:59:40.758Z,4.30
2017-08-18T16:02:09.034Z,4.80
2017-08-18T16:04:37.311Z,4.83
2017-08-18T16:07:05.587Z,5.07
2017-08-18T16:09:33.869Z,4.83
2017-08-18T16:12:02.472Z,3.13
2017-08-18T16:14:30.826Z,3.00
2017-08-18T16:16:59.102Z,2.20
2017-08-18T16:19:27.484Z,2.00
2017-08-18T16:21:55.754Z,1.77
2017-08-18T16:24:24.138Z,1.43
2017-08-18T16:26:52.395Z,2.23
2017-08-18T16:29:21.715Z,2.40
2017-08-18T16:31:49.991Z,1.40
2017-08-18T16:34:18.278Z,1.30
2017-08-18T16:36:46.661Z,1.20
2017-08-18T16:39:14.899Z,1.27
2017-08-18T16:41:43.174Z,1.30
2017-08-18T16:44:11.427Z,0.90
2017-08-18T16:46:40.083Z,0.80
2017-08-18T16:49:08.435Z,1.13
2017-08-18T16:51:36.718Z,1.07
2017-08-18T16:54:04.990Z,1.00
2017-08-18T16:56:33.369Z,1.10
2017-08-18T16:59:01.638Z,1.00
2017-08-18T17:01:29.937Z,0.90
2017-08-18T17:03:58.196Z,1.00
2017-08-18T17:06:26.570Z,1.10
2017-08-18T17:08:54.822Z,0.90
2017-08-18T17:11:23.126Z,1.07
2017-08-18T17:13:51.402Z,1.30
2017-08-18T17:16:19.698Z,0.93
2017-08-18T17:18:48.058Z,0.80
2017-08-18T17:21:16.317Z,0.73
2017-08-18T17:23:44.632Z,0.80
2017-08-18T17:26:12.906Z,0.80
2017-08-18T17:28:41.179Z,0.90
2017-08-18T17:31:09.443Z,0.77
2017-08-18T17:33:37.723Z,0.90
2017-08-18T17:36:05.971Z,0.70
2017-08-18T17:38:34.266Z,0.80
2017-08-18T17:41:02.523Z,1.27
2017-08-18T17:43:30.837Z,0.80
2017-08-18T17:45:59.202Z,0.73
2017-08-18T17:48:27.479Z,1.20
2017-08-18T17:50:55.771Z,0.90
2017-08-18T17:53:24.033Z,1.27
2017-08-18T17:55:52.427Z,0.97
2017-08-18T17:58:21.667Z,1.37
2017-08-18T18:00:49.988Z,1.00
2017-08-18T18:03:18.245Z,0.90
2017-08-18T18:05:46.538Z,0.70
2017-08-18T18:08:14.847Z,0.90
2017-08-18T18:10:43.155Z,1.00
2017-08-18T18:13:11.473Z,1.03
2017-08-18T18:15:39.755Z,0.87
2017-08-18T18:18:08.028Z,0.80
2017-08-18T18:20:36.294Z,0.80
2017-08-18T18:23:04.681Z,0.90
2017-08-18T18:25:32.963Z,1.07
2017-08-18T18:28:01.238Z,1.10
2017-08-18T18:30:29.523Z,1.27
2017-08-18T18:32:57.783Z,0.90
2017-08-18T18:35:26.077Z,0.90
2017-08-18T18:37:54.330Z,1.00
2017-08-18T18:40:22.630Z,1.17
2017-08-18T18:42:50.991Z,1.30
2017-08-18T18:45:19.278Z,1.73
2017-08-18T18:47:47.564Z,1.10
2017-08-18T18:50:15.817Z,1.00
2017-08-18T18:52:45.023Z,1.00
2017-08-18T18:55:13.291Z,0.90
2017-08-18T18:57:41.573Z,1.10
2017-08-18T19:00:09.847Z,1.03
2017-08-18T19:02:38.131Z,1.00
2017-08-18T19:05:06.403Z,1.20
2017-08-18T19:07:35.014Z,1.20
2017-08-18T19:10:03.311Z,0.97
2017-08-18T19:12:32.363Z,1.00
2017-08-18T19:15:00.634Z,1.10
2017-08-18T19:17:29.866Z,1.43
2017-08-18T19:19:58.926Z,1.27
2017-08-18T19:22:27.308Z,1.50
2017-08-18T19:24:55.584Z,1.07
2017-08-18T19:27:23.963Z,1.50
2017-08-18T19:29:52.234Z,1.03
2017-08-18T19:32:20.519Z,1.20
2017-08-18T19:34:48.898Z,2.07
2017-08-18T19:37:17.186Z,1.40
2017-08-18T19:39:46.391Z,1.50
2017-08-18T19:42:14.735Z,1.20
2017-08-18T19:44:42.991Z,2.13
2017-08-18T19:47:11.308Z,1.60
2017-08-18T19:49:39.575Z,1.20
2017-08-18T19:52:07.946Z,1.40
2017-08-18T19:54:36.198Z,1.47
2017-08-18T19:57:04.507Z,1.50
2017-08-18T19:59:32.782Z,1.30
2017-08-18T20:02:01.075Z,1.50
2017-08-18T20:04:29.443Z,1.00
2017-08-18T20:06:57.711Z,1.20
2017-08-18T20:09:26.099Z,1.10
2017-08-18T20:11:54.351Z,0.90
2017-08-18T20:14:22.661Z,0.97
2017-08-18T20:16:50.918Z,1.20
2017-08-18T20:19:19.302Z,1.33
2017-08-18T20:21:47.594Z,0.80
2017-08-18T20:24:15.918Z,1.00
2017-08-18T20:26:45.051Z,0.87
2017-08-18T20:29:13.327Z,0.80
2017-08-18T20:31:41.623Z,1.00
2017-08-18T20:34:09.987Z,0.97
2017-08-18T20:36:38.234Z,0.83
2017-08-18T20:39:06.520Z,0.80
2017-08-18T20:41:34.766Z,0.80
2017-08-18T20:44:03.087Z,0.83
2017-08-18T20:46:31.334Z,0.80
2017-08-18T20:48:59.658Z,0.90
2017-08-18T20:51:27.914Z,0.90
2017-08-18T20:53:56.312Z,1.10
2017-08-18T20:56:24.678Z,0.87
2017-08-18T20:58:52.951Z,0.90
2017-08-18T21:01:21.324Z,0.90
2017-08-18T21:03:50.603Z,0.80
2017-08-18T21:06:19.827Z,0.80
2017-08-18T21:08:48.102Z,1.00
2017-08-18T21:11:16.382Z,0.90
2017-08-18T21:13:45.579Z,0.90
2017-08-18T21:16:13.915Z,0.70
2017-08-18T21:18:42.231Z,1.00
2017-08-18T21:21:10.594Z,1.10
2017-08-18T21:23:38.890Z,0.97
2017-08-18T21:26:07.284Z,1.33
2017-08-18T21:28:35.646Z,0.90
2017-08-18T21:31:04.023Z,0.90
2017-08-18T21:33:32.307Z,0.90
2017-08-18T21:36:00.679Z,0.87
2017-08-18T21:38:28.954Z,0.80
2017-08-18T21:40:58.253Z,0.77
2017-08-18T21:43:26.534Z,0.80
2017-08-18T21:45:54.910Z,0.90
2017-08-18T21:48:23.182Z,0.80
2017-08-18T21:50:51.567Z,0.70
2017-08-18T21:55:55.723Z,0.83
2017-08-18T21:58:24.076Z,1.00
2017-08-18T22:00:52.455Z,1.10
2017-08-18T22:03:20.699Z,0.80
2017-08-18T22:05:49.007Z,1.17
2017-08-18T22:08:17.301Z,1.07
2017-08-18T22:10:45.662Z,1.30
2017-08-18T22:13:13.943Z,0.90
2017-08-18T22:15:42.314Z,0.90
2017-08-18T22:18:10.595Z,1.10
2017-08-18T22:20:39.041Z,1.00
2017-08-18T22:23:07.266Z,0.80
2017-08-18T22:25:35.522Z,0.70
2017-08-18T22:28:03.902Z,0.80
2017-08-18T22:30:32.198Z,0.80
2017-08-18T22:33:00.458Z,1.20
2017-08-18T22:35:28.834Z,1.03
2017-08-18T22:37:57.111Z,1.03
2017-08-18T22:40:25.491Z,1.00
2017-08-18T22:42:53.766Z,0.90
2017-08-18T22:45:22.147Z,1.20
2017-08-18T22:47:50.425Z,1.60
2017-08-18T22:50:18.798Z,1.93
2017-08-18T22:52:47.998Z,0.90
2017-08-18T22:55:16.340Z,1.17
2017-08-18T22:57:44.655Z,1.30
2017-08-18T23:00:12.946Z,1.27
2017-08-18T23:02:41.207Z,1.27
2017-08-18T23:05:09.503Z,1.20
2017-08-18T23:07:37.862Z,1.00
2017-08-18T23:10:06.139Z,1.10
2017-08-18T23:12:34.515Z,1.10
2017-08-18T23:15:02.763Z,1.13
